createdAt,value
2023-03-26T00:01:50.906Z,6.00
2023-03-26T00:04:47.830Z,6.10
2023-03-26T00:07:44.660Z,6.00
2023-03-26T00:10:43.210Z,6.00
2023-03-26T00:13:41.483Z,6.00
2023-03-26T00:16:38.336Z,6.00
2023-03-26T00:19:35.380Z,6.00
2023-03-26T00:22:32.212Z,6.00
2023-03-26T00:25:29.051Z,5.90
2023-03-26T00:28:26.332Z,6.10
2023-03-26T00:31:23.852Z,6.10
2023-03-26T00:34:22.977Z,6.10
2023-03-26T00:37:20.394Z,6.10
2023-03-26T00:40:17.364Z,6.10
2023-03-26T00:43:20.790Z,6.10
2023-03-26T00:46:18.557Z,6.10
2023-03-26T00:49:15.483Z,6.10
2023-03-26T00:52:12.465Z,6.10
2023-03-26T00:55:09.787Z,6.20
2023-03-26T00:58:10.246Z,6.20
2023-03-26T01:01:13.924Z,6.20
2023-03-26T01:04:37.776Z,6.10
2023-03-26T01:07:35.184Z,6.10
2023-03-26T01:10:38.871Z,6.20
2023-03-26T01:13:38.611Z,6.20
2023-03-26T01:16:52.161Z,6.20
2023-03-26T01:20:19.249Z,6.20
2023-03-26T01:23:24.607Z,6.10
2023-03-26T01:26:46.058Z,6.10
2023-03-26T01:30:17.021Z,6.10
2023-03-26T01:33:30.305Z,6.10
2023-03-26T01:37:22.281Z,6.10
2023-03-26T01:40:38.748Z,6.10
2023-03-26T01:44:03.606Z,6.10
2023-03-26T01:47:01.271Z,6.20
2023-03-26T01:49:58.156Z,6.20
2023-03-26T01:52:55.268Z,6.20
2023-03-26T01:56:24.975Z,6.20
2023-03-26T02:00:07.124Z,6.20
2023-03-26T02:03:31.513Z,6.20
2023-03-26T02:06:45.576Z,6.10
2023-03-26T02:09:55.340Z,6.20
2023-03-26T02:12:52.658Z,6.10
2023-03-26T02:16:05.092Z,6.20
2023-03-26T02:19:02.066Z,6.20
2023-03-26T02:22:00.620Z,6.20
2023-03-26T02:24:57.440Z,6.20
2023-03-26T02:27:54.491Z,6.20
2023-03-26T02:30:52.481Z,6.20
2023-03-26T02:33:49.521Z,6.30
2023-03-26T02:36:46.915Z,6.20
2023-03-26T02:39:44.184Z,6.20
2023-03-26T02:42:41.247Z,6.20
2023-03-26T02:45:38.262Z,6.20
2023-03-26T02:48:35.253Z,6.20
2023-03-26T02:51:34.947Z,6.20
2023-03-26T02:54:34.262Z,6.30
2023-03-26T02:57:31.344Z,6.30
2023-03-26T03:00:29.021Z,6.20
2023-03-26T03:03:27.312Z,6.20
2023-03-26T03:06:26.494Z,6.20
2023-03-26T03:09:27.736Z,6.30
2023-03-26T03:12:24.562Z,6.30
2023-03-26T03:15:21.509Z,6.20
2023-03-26T03:18:18.436Z,6.20
2023-03-26T03:21:15.275Z,6.30
2023-03-26T03:24:13.807Z,6.30
2023-03-26T03:27:10.690Z,6.30
2023-03-26T03:30:10.816Z,6.20
2023-03-26T03:33:07.710Z,6.30
2023-03-26T03:36:10.526Z,6.30
2023-03-26T03:39:17.866Z,6.30
2023-03-26T03:42:14.820Z,6.30
2023-03-26T03:45:12.172Z,6.30
2023-03-26T03:48:09.051Z,6.30
2023-03-26T03:51:06.377Z,6.30
2023-03-26T03:54:03.694Z,6.30
2023-03-26T03:57:02.061Z,6.20
2023-03-26T03:59:59.101Z,6.20
2023-03-26T04:02:56.241Z,6.20
2023-03-26T04:05:54.980Z,6.30
2023-03-26T04:08:52.879Z,6.30
2023-03-26T04:11:51.127Z,6.20
2023-03-26T04:14:48.505Z,6.20
2023-03-26T04:17:45.451Z,6.20
2023-03-26T04:20:47.341Z,6.10
2023-03-26T04:23:44.213Z,6.10
2023-03-26T04:26:41.621Z,6.10
2023-03-26T04:29:43.878Z,6.10
2023-03-26T04:32:42.897Z,6.00
2023-03-26T04:35:41.836Z,6.00
2023-03-26T04:38:48.964Z,6.00
2023-03-26T04:41:46.977Z,6.10
2023-03-26T04:44:43.820Z,6.10
2023-03-26T04:47:40.733Z,6.00
2023-03-26T04:50:37.615Z,6.00
2023-03-26T04:53:35.368Z,6.00
2023-03-26T04:56:43.401Z,6.00
2023-03-26T04:59:41.270Z,6.00
2023-03-26T05:02:39.959Z,6.00
2023-03-26T05:05:37.356Z,6.00
2023-03-26T05:08:34.188Z,6.00
2023-03-26T05:11:31.485Z,6.00
2023-03-26T05:14:28.337Z,5.90
2023-03-26T05:17:25.986Z,6.00
2023-03-26T05:20:27.299Z,6.00
2023-03-26T05:23:24.180Z,6.00
2023-03-26T05:26:21.187Z,6.10
2023-03-26T05:29:18.472Z,6.10
2023-03-26T05:32:17.610Z,6.10
2023-03-26T05:35:17.214Z,6.10
2023-03-26T05:38:14.138Z,6.10
2023-03-26T05:41:11.034Z,6.10
2023-03-26T05:44:07.846Z,6.10
2023-03-26T05:47:04.699Z,6.10
2023-03-26T05:50:01.672Z,6.10
2023-03-26T05:52:58.491Z,6.20
2023-03-26T05:55:58.470Z,6.20
2023-03-26T05:58:56.730Z,6.30
2023-03-26T06:01:54.737Z,6.20
2023-03-26T06:04:52.521Z,6.20
2023-03-26T06:07:49.427Z,6.20
2023-03-26T06:10:46.321Z,6.20
2023-03-26T06:13:44.341Z,6.20
2023-03-26T06:16:41.207Z,6.20
2023-03-26T06:19:38.403Z,6.30
2023-03-26T06:22:35.230Z,6.40
2023-03-26T06:25:32.145Z,6.40
2023-03-26T06:28:28.974Z,6.40
2023-03-26T06:31:25.906Z,6.50
2023-03-26T06:34:22.751Z,6.60
2023-03-26T06:37:19.598Z,6.60
2023-03-26T06:40:16.554Z,6.70
2023-03-26T06:43:13.426Z,6.70
2023-03-26T06:46:10.852Z,6.80
2023-03-26T06:49:07.764Z,6.80
2023-03-26T06:52:05.184Z,6.80
2023-03-26T06:55:02.058Z,6.70
2023-03-26T06:57:58.893Z,6.80
2023-03-26T07:00:56.746Z,6.80
2023-03-26T07:03:53.772Z,6.90
2023-03-26T07:06:50.805Z,6.90
2023-03-26T07:09:48.362Z,6.90
2023-03-26T07:12:45.911Z,6.80
2023-03-26T07:15:42.748Z,6.80
2023-03-26T07:18:39.602Z,6.80
2023-03-26T07:21:36.852Z,6.90
2023-03-26T07:24:34.149Z,6.90
2023-03-26T07:28:06.548Z,6.90
2023-03-26T07:31:39.281Z,6.90
2023-03-26T07:34:59.103Z,6.90
2023-03-26T07:38:29.270Z,7.00
2023-03-26T07:41:46.269Z,7.00
2023-03-26T07:45:19.513Z,7.00
2023-03-26T07:48:31.453Z,7.00
2023-03-26T07:51:29.149Z,7.10
2023-03-26T07:54:26.325Z,7.00
2023-03-26T07:57:37.796Z,7.20
2023-03-26T08:01:08.034Z,7.30
2023-03-26T08:04:24.073Z,7.40
2023-03-26T08:07:53.578Z,7.40
2023-03-26T08:11:02.906Z,7.40
2023-03-26T08:14:38.607Z,7.50
2023-03-26T08:17:44.947Z,7.40
2023-03-26T08:20:50.184Z,7.50
2023-03-26T08:24:17.649Z,7.50
2023-03-26T08:27:37.813Z,7.50
2023-03-26T08:30:34.814Z,7.50
2023-03-26T08:33:32.431Z,7.60
2023-03-26T08:36:29.642Z,7.70
2023-03-26T08:39:26.519Z,7.70
2023-03-26T08:43:13.893Z,7.70
2023-03-26T08:47:04.993Z,7.90
2023-03-26T08:50:43.634Z,8.10
2023-03-26T08:54:22.808Z,8.10
2023-03-26T08:58:12.460Z,8.20
2023-03-26T09:01:50.884Z,8.10
2023-03-26T09:05:21.275Z,8.40
2023-03-26T09:08:53.595Z,8.30
2023-03-26T09:12:00.296Z,8.30
2023-03-26T09:15:40.156Z,8.30
2023-03-26T09:19:17.084Z,8.40
2023-03-26T09:22:45.995Z,8.30
2023-03-26T09:26:17.593Z,8.30
2023-03-26T09:29:59.529Z,8.30
2023-03-26T09:33:52.152Z,8.40
2023-03-26T09:37:16.102Z,8.40
2023-03-26T09:40:22.675Z,8.50
2023-03-26T09:44:14.751Z,8.50
2023-03-26T09:47:58.139Z,8.60
2023-03-26T09:51:38.406Z,8.60
2023-03-26T09:54:58.302Z,8.50
2023-03-26T09:58:38.150Z,8.30
2023-03-26T10:01:54.258Z,8.40
2023-03-26T10:05:57.557Z,8.40
2023-03-26T10:09:01.205Z,8.50
2023-03-26T10:12:15.727Z,8.60
2023-03-26T10:15:49.587Z,8.60
2023-03-26T10:18:58.044Z,8.40
2023-03-26T10:22:35.915Z,8.40
2023-03-26T10:25:57.726Z,8.40
2023-03-26T10:29:20.672Z,8.40
2023-03-26T10:32:48.024Z,8.70
2023-03-26T10:35:50.631Z,8.60
2023-03-26T10:38:50.175Z,8.50
2023-03-26T10:42:26.234Z,8.50
2023-03-26T10:45:59.222Z,8.40
2023-03-26T10:49:41.040Z,8.40
2023-03-26T10:53:11.876Z,8.50
2023-03-26T10:56:33.046Z,8.40
2023-03-26T10:59:30.694Z,8.10
2023-03-26T11:02:39.337Z,8.30
2023-03-26T11:06:15.039Z,8.30
2023-03-26T11:10:01.617Z,8.10
2023-03-26T11:13:27.670Z,7.90
2023-03-26T11:16:33.875Z,7.90
2023-03-26T11:20:16.641Z,8.00
2023-03-26T11:24:05.044Z,7.90
2023-03-26T11:27:31.783Z,7.80
2023-03-26T11:30:51.680Z,7.80
2023-03-26T11:33:56.471Z,7.80
2023-03-26T11:36:57.511Z,8.00
2023-03-26T11:39:57.828Z,7.80
2023-03-26T11:43:08.056Z,7.60
2023-03-26T11:46:13.291Z,7.40
2023-03-26T11:49:16.761Z,7.60
2023-03-26T11:52:15.737Z,7.70
2023-03-26T11:55:13.649Z,7.60
2023-03-26T11:58:29.807Z,7.60
2023-03-26T12:01:40.407Z,7.40
2023-03-26T12:04:43.376Z,7.20
2023-03-26T12:08:02.424Z,7.20
2023-03-26T12:11:07.067Z,7.40
2023-03-26T12:14:05.753Z,7.50
2023-03-26T12:17:04.528Z,7.70
2023-03-26T12:20:25.458Z,7.60
2023-03-26T12:23:56.319Z,7.40
2023-03-26T12:27:22.092Z,7.10
2023-03-26T12:30:31.118Z,7.10
2023-03-26T12:33:35.497Z,7.20
2023-03-26T12:36:35.924Z,7.30
2023-03-26T12:40:08.000Z,7.20
2023-03-26T12:44:49.665Z,7.20
2023-03-26T12:47:55.405Z,7.40
2023-03-26T12:49:45.021Z,7.30
2023-03-26T12:53:17.947Z,7.10
2023-03-26T12:56:41.900Z,7.20
2023-03-26T12:59:53.288Z,7.50
2023-03-26T13:03:11.942Z,7.20
2023-03-26T13:07:01.830Z,7.30
2023-03-26T13:10:45.446Z,7.20
2023-03-26T13:14:00.759Z,7.10
2023-03-26T13:17:02.264Z,7.20
2023-03-26T13:20:55.766Z,7.10
2023-03-26T13:24:25.760Z,7.20
2023-03-26T13:28:12.366Z,7.40
2023-03-26T13:31:42.322Z,7.30
2023-03-26T13:35:11.453Z,7.30
2023-03-26T13:38:36.721Z,7.30
2023-03-26T13:41:43.740Z,7.30
2023-03-26T13:45:21.052Z,7.50
2023-03-26T13:48:25.378Z,7.40
2023-03-26T13:51:43.515Z,7.30
2023-03-26T13:54:49.946Z,7.50
2023-03-26T13:58:10.378Z,7.80
2023-03-26T14:01:21.173Z,7.90
2023-03-26T14:04:38.694Z,8.10
2023-03-26T14:07:46.872Z,8.20
2023-03-26T14:10:53.999Z,8.20
2023-03-26T14:14:13.866Z,8.10
2023-03-26T14:17:38.524Z,8.00
2023-03-26T14:21:08.845Z,8.00
2023-03-26T14:24:17.965Z,8.00
2023-03-26T14:27:57.477Z,7.90
2023-03-26T14:31:35.137Z,7.80
2023-03-26T14:34:46.924Z,7.50
2023-03-26T14:38:45.322Z,7.60
2023-03-26T14:41:50.535Z,7.70
2023-03-26T14:45:11.444Z,7.70
2023-03-26T14:48:09.944Z,7.70
2023-03-26T14:51:33.926Z,7.70
2023-03-26T14:54:34.897Z,7.60
2023-03-26T14:57:59.061Z,7.70
2023-03-26T15:01:22.765Z,7.60
2023-03-26T15:04:54.015Z,7.60
2023-03-26T15:08:18.450Z,7.60
2023-03-26T15:11:52.201Z,7.60
2023-03-26T15:15:32.958Z,7.70
2023-03-26T15:19:01.792Z,7.60
2023-03-26T15:22:26.130Z,7.60
2023-03-26T15:25:53.717Z,7.60
2023-03-26T15:29:50.845Z,7.70
2023-03-26T15:33:35.041Z,7.70
2023-03-26T15:37:22.272Z,7.60
2023-03-26T15:40:36.324Z,7.90
2023-03-26T15:44:22.635Z,8.00
2023-03-26T15:47:56.359Z,8.00
2023-03-26T15:50:59.898Z,8.00
2023-03-26T15:54:09.150Z,7.90
2023-03-26T15:57:31.127Z,7.80
2023-03-26T16:00:34.855Z,7.90
2023-03-26T16:03:51.559Z,8.10
2023-03-26T16:06:53.975Z,8.00
2023-03-26T16:10:23.179Z,7.90
2023-03-26T16:13:24.013Z,7.90
2023-03-26T16:16:23.757Z,7.70
2023-03-26T16:19:23.306Z,7.60
2023-03-26T16:22:42.735Z,7.70
2023-03-26T16:26:14.869Z,7.60
2023-03-26T16:29:14.835Z,7.60
2023-03-26T16:32:28.824Z,7.60
2023-03-26T16:36:02.971Z,7.70
2023-03-26T16:38:59.730Z,7.70
2023-03-26T16:42:33.687Z,7.70
2023-03-26T16:45:52.032Z,7.50
2023-03-26T16:48:58.340Z,7.50
2023-03-26T16:52:19.485Z,7.40
2023-03-26T16:55:37.373Z,7.30
2023-03-26T16:59:00.441Z,7.40
2023-03-26T17:02:16.559Z,7.40
2023-03-26T17:05:25.855Z,7.40
2023-03-26T17:08:57.368Z,7.20
2023-03-26T17:12:23.831Z,7.10
2023-03-26T17:15:52.443Z,7.20
2023-03-26T17:19:29.672Z,7.00
2023-03-26T17:23:04.821Z,7.20
2023-03-26T17:26:30.813Z,7.00
2023-03-26T17:29:48.795Z,6.90
2023-03-26T17:33:25.392Z,6.90
2023-03-26T17:36:43.155Z,6.70
2023-03-26T17:39:39.859Z,6.60
2023-03-26T17:42:37.569Z,6.60
2023-03-26T17:45:37.434Z,6.60
2023-03-26T17:48:38.141Z,6.60
2023-03-26T17:52:01.595Z,6.70
2023-03-26T17:55:01.617Z,6.70
2023-03-26T17:58:02.192Z,6.60
2023-03-26T18:01:27.128Z,6.60
2023-03-26T18:04:36.520Z,6.50
2023-03-26T18:08:12.750Z,6.40
2023-03-26T18:12:03.969Z,6.40
2023-03-26T18:15:18.108Z,6.30
2023-03-26T18:18:41.011Z,6.20
2023-03-26T18:21:40.050Z,6.20
2023-03-26T18:24:40.497Z,6.00
2023-03-26T18:27:40.559Z,6.00
2023-03-26T18:30:48.517Z,6.00
2023-03-26T18:33:48.603Z,6.00
2023-03-26T18:37:16.449Z,6.00
2023-03-26T18:40:22.102Z,6.00
2023-03-26T18:43:32.497Z,6.00
2023-03-26T18:46:33.855Z,6.00
2023-03-26T18:49:31.157Z,5.90
2023-03-26T18:52:29.947Z,5.80
2023-03-26T18:55:30.839Z,5.70
2023-03-26T18:58:34.909Z,5.50
2023-03-26T19:01:36.553Z,5.50
2023-03-26T19:04:34.980Z,5.40
2023-03-26T19:07:32.223Z,5.40
2023-03-26T19:10:31.062Z,5.30
2023-03-26T19:13:28.485Z,5.20
2023-03-26T19:16:33.580Z,5.30
2023-03-26T19:19:36.801Z,5.30
2023-03-26T19:22:34.070Z,5.30
2023-03-26T19:25:41.973Z,5.20
2023-03-26T19:28:48.994Z,5.20
2023-03-26T19:31:52.556Z,5.10
2023-03-26T19:34:50.678Z,5.30
2023-03-26T19:37:54.131Z,5.40
2023-03-26T19:40:54.447Z,5.40
2023-03-26T19:43:57.914Z,5.40
2023-03-26T19:47:06.479Z,5.40
2023-03-26T19:50:25.778Z,5.30
2023-03-26T19:53:32.428Z,5.20
2023-03-26T19:56:29.599Z,5.10
2023-03-26T19:59:26.489Z,5.20
2023-03-26T20:02:23.776Z,5.40
2023-03-26T20:05:28.916Z,5.30
2023-03-26T20:08:28.310Z,5.40
2023-03-26T20:11:36.514Z,5.40
2023-03-26T20:14:33.853Z,5.30
2023-03-26T20:17:30.948Z,5.30
2023-03-26T20:20:28.055Z,5.30
2023-03-26T20:23:27.640Z,5.40
2023-03-26T20:26:25.189Z,5.40
2023-03-26T20:29:23.468Z,5.40
2023-03-26T20:32:26.416Z,5.50
2023-03-26T20:35:36.042Z,5.40
2023-03-26T20:38:39.510Z,5.40
2023-03-26T20:41:47.139Z,5.50
2023-03-26T20:44:43.956Z,5.40
2023-03-26T20:47:41.076Z,5.40
2023-03-26T20:50:50.445Z,5.40
2023-03-26T20:53:58.596Z,5.40
2023-03-26T20:56:55.512Z,5.50
2023-03-26T20:59:54.365Z,5.50
2023-03-26T21:02:54.743Z,5.40
2023-03-26T21:05:52.583Z,5.40
2023-03-26T21:08:49.766Z,5.50
2023-03-26T21:12:03.199Z,5.50
2023-03-26T21:15:03.301Z,5.30
2023-03-26T21:18:02.655Z,5.40
2023-03-26T21:21:20.128Z,5.30
2023-03-26T21:25:15.622Z,5.40
2023-03-26T21:28:41.752Z,5.30
2023-03-26T21:31:39.749Z,5.20
2023-03-26T21:34:42.005Z,5.20
2023-03-26T21:37:44.022Z,5.20
2023-03-26T21:40:46.905Z,5.10
2023-03-26T21:43:46.513Z,5.10
2023-03-26T21:46:45.520Z,5.20
2023-03-26T21:49:42.757Z,5.30
2023-03-26T21:52:47.051Z,5.20
2023-03-26T21:56:18.080Z,5.20
2023-03-26T21:59:39.154Z,5.20
2023-03-26T22:03:17.523Z,5.30
2023-03-26T22:06:22.689Z,5.30
2023-03-26T22:09:23.547Z,5.20
2023-03-26T22:12:25.571Z,5.10
2023-03-26T22:15:22.485Z,5.00
2023-03-26T22:18:24.511Z,4.90
2023-03-26T22:21:23.400Z,4.90
2023-03-26T22:24:21.050Z,4.90
2023-03-26T22:27:18.019Z,4.90
2023-03-26T22:30:16.389Z,4.80
2023-03-26T22:33:14.417Z,4.70
2023-03-26T22:36:22.895Z,4.70
2023-03-26T22:39:20.538Z,4.70
2023-03-26T22:42:17.380Z,4.80
2023-03-26T22:45:14.292Z,4.70
2023-03-26T22:48:11.149Z,4.70
2023-03-26T22:51:09.369Z,4.60
2023-03-26T22:54:06.416Z,4.70
2023-03-26T22:57:04.000Z,4.70
2023-03-26T23:00:12.453Z,4.80
2023-03-26T23:03:09.347Z,4.80
2023-03-26T23:06:10.613Z,4.80
2023-03-26T23:09:07.953Z,4.80
2023-03-26T23:12:05.258Z,4.70
2023-03-26T23:15:05.063Z,4.60
2023-03-26T23:18:02.003Z,4.60
2023-03-26T23:20:59.082Z,4.60
2023-03-26T23:23:55.952Z,4.50
2023-03-26T23:26:53.276Z,4.50
2023-03-26T23:29:50.138Z,4.50
2023-03-26T23:32:47.128Z,4.40
2023-03-26T23:35:44.269Z,4.30
2023-03-26T23:38:43.994Z,4.30
2023-03-26T23:41:41.563Z,4.30
2023-03-26T23:44:39.125Z,4.30
2023-03-26T23:47:36.002Z,4.30
2023-03-26T23:50:33.115Z,4.30
2023-03-26T23:53:32.002Z,4.30
2023-03-26T23:56:30.127Z,4.20
2023-03-26T23:59:27.173Z,4.10
